ESGF weather

Morup Airport
Falkenberg, Hallands län, Sweden

Public forecast

Using degrees Celsius for public forecast. Weather courtesy of forecast.io.

Closest aviation weather report (METAR) to Morup Airport

Closest report is Halmstad Airport, 22.0 nm (40.7 km) SE. Retrieved 2019/10/20 05:20 UTC (24 minutes ago):

ESMT 200520Z AUTO 20006KT 9999 FEW005/// SCT017/// 11/10 Q1007

Closest aviation forecast (TAF) to Morup Airport

Forecast is more than 12 hours old.

Closest forecast is Halmstad Airport, 22.0 nm (40.7 km) SE. Retrieved 2017/04/24 06:33 UTC (2 years ago):

TAF ESMT 240513Z 2406/2506 22018KT 9999 BKN018 TEMPO 2406/2413 22018G30KT 4000 RADZ BKN008 TEMPO 2413/2415 24020G30KT 4000 SHRA BKN014 SCT020CB